Time;durP1;ratioP1;P1;durP2;ratioP2;P2;SDS_P1;SDS_P2;PMS_P1;PMS_P2;Temp;Humidity;BMP_temperature;BMP_pressure;BME280_temperature;BME280_humidity;BME280_pressure;Samples;Min_cycle;Max_cycle;Signal;HPM_P1;HPM_P2
2021/05/31 00:01:26;;;;;;;7.80;4.53;;;;;;;13.30;59.04;92966.94;4992445;28;20054;-76
2021/05/31 00:03:51;;;;;;;8.30;4.50;;;;;;;13.32;58.49;92970.06;4992192;28;20053;-77
2021/05/31 00:06:17;;;;;;;7.47;4.47;;;;;;;13.31;59.69;92968.53;4992116;28;20456;-77
2021/05/31 00:08:43;;;;;;;9.55;3.95;;;;;;;13.32;59.53;92962.19;4968577;28;20039;-76
2021/05/31 00:11:09;;;;;;;7.55;4.20;;;;;;;13.32;59.62;92974.56;4972627;28;20141;-77
2021/05/31 00:13:34;;;;;;;8.20;4.72;;;;;;;13.31;59.07;92973.00;4972634;28;20042;-77
2021/05/31 00:16:00;;;;;;;8.63;4.63;;;;;;;13.32;59.03;92969.28;4955442;28;20537;-77
2021/05/31 00:18:26;;;;;;;7.28;4.63;;;;;;;13.28;60.08;92976.19;4972073;28;20034;-77
2021/05/31 00:20:52;;;;;;;11.65;5.20;;;;;;;13.30;57.90;92985.34;4955090;28;20211;-77
2021/05/31 00:23:18;;;;;;;9.63;4.60;;;;;;;13.31;59.67;92980.88;4954949;28;20035;-77
2021/05/31 00:25:45;;;;;;;10.10;4.88;;;;;;;13.29;59.49;92977.78;4988081;28;20050;-77
2021/05/31 00:28:10;;;;;;;11.02;4.90;;;;;;;13.29;58.76;92967.25;4972385;28;20042;-76
2021/05/31 00:30:37;;;;;;;9.88;5.32;;;;;;;13.27;58.21;92964.09;4955327;28;20047;-77
2021/05/31 00:33:03;;;;;;;13.82;5.38;;;;;;;13.27;58.43;92967.50;4972764;28;20041;-77
2021/05/31 00:35:29;;;;;;;13.35;5.28;;;;;;;13.27;58.19;92961.47;4972851;28;20053;-77
2021/05/31 00:37:55;;;;;;;15.02;5.80;;;;;;;13.29;58.02;92962.00;4972124;28;20030;-77
2021/05/31 00:40:22;;;;;;;9.27;5.18;;;;;;;13.30;57.99;92961.69;4970976;28;20070;-77
2021/05/31 00:42:48;;;;;;;9.25;5.20;;;;;;;13.31;57.76;92963.25;4955540;28;20066;-77
2021/05/31 00:45:14;;;;;;;10.02;6.45;;;;;;;13.28;57.51;92961.22;4972557;28;20038;-76
2021/05/31 00:47:40;;;;;;;8.45;5.10;;;;;;;13.30;57.15;92960.91;4972192;28;20034;-77
2021/05/31 00:50:06;;;;;;;9.68;5.03;;;;;;;13.28;56.96;92963.06;4972588;28;20053;-77
2021/05/31 00:52:32;;;;;;;9.60;5.00;;;;;;;13.26;56.37;92954.63;4972740;28;20122;-77
2021/05/31 00:54:58;;;;;;;7.88;5.00;;;;;;;13.26;56.55;92959.91;4970639;28;20046;-77
2021/05/31 00:57:24;;;;;;;8.85;5.13;;;;;;;13.24;56.43;92968.09;4972415;28;20030;-77
2021/05/31 00:59:50;;;;;;;9.93;5.18;;;;;;;13.22;56.07;92967.59;4971942;28;20445;-77
2021/05/31 01:02:16;;;;;;;7.55;4.30;;;;;;;13.17;56.08;92964.28;4972343;28;20133;-77
2021/05/31 01:04:41;;;;;;;6.35;4.50;;;;;;;13.15;56.47;92971.66;4975306;28;20038;-77
2021/05/31 01:07:26;;;;;;;7.35;4.60;;;;;;;13.04;56.92;92974.47;4977690;28;20039;-77
2021/05/31 01:10:15;;;;;;;8.30;4.32;;;;;;;13.01;57.34;92975.03;4952070;28;20057;-76
2021/05/31 01:13:01;;;;;;;7.50;4.78;;;;;;;12.93;57.29;92973.09;4971587;28;20129;-76
2021/05/31 01:15:31;;;;;;;7.63;4.70;;;;;;;12.94;57.31;92974.63;4971653;28;20102;-76
2021/05/31 01:17:59;;;;;;;9.18;4.68;;;;;;;12.92;56.68;92974.16;4971475;28;20146;-76
2021/05/31 01:20:49;;;;;;;7.20;4.57;;;;;;;12.93;55.84;92967.84;4974728;28;20043;-77
2021/05/31 01:23:17;;;;;;;8.65;4.85;;;;;;;12.91;55.78;92970.75;4975406;28;20047;-77
2021/05/31 01:26:02;;;;;;;7.18;4.43;;;;;;;12.93;55.67;92967.06;4975448;28;20097;-77
2021/05/31 01:29:03;;;;;;;7.53;4.28;;;;;;;12.92;55.84;92968.88;4957894;28;20065;-77
2021/05/31 01:31:53;;;;;;;7.63;4.28;;;;;;;12.91;56.03;92967.34;4989677;28;20425;-76
2021/05/31 01:34:22;;;;;;;9.77;4.80;;;;;;;12.92;55.86;92958.38;4990324;28;20074;-77
2021/05/31 01:36:52;;;;;;;6.80;4.15;;;;;;;12.93;55.42;92967.06;4958284;28;20392;-77
2021/05/31 01:39:25;;;;;;;7.15;4.10;;;;;;;12.92;54.91;92966.25;4941888;28;20043;-77
2021/05/31 01:41:52;;;;;;;7.57;4.40;;;;;;;12.91;54.33;92962.84;4975282;28;20498;-77
2021/05/31 01:44:19;;;;;;;6.47;4.03;;;;;;;12.94;54.45;92969.38;4974952;28;20037;-77
2021/05/31 01:46:45;;;;;;;6.78;4.00;;;;;;;12.96;54.20;92959.38;4975277;28;20105;-77
2021/05/31 01:49:12;;;;;;;7.95;4.07;;;;;;;12.96;53.77;92956.75;4974939;28;20039;-76
2021/05/31 01:51:38;;;;;;;8.20;4.15;;;;;;;12.96;53.40;92950.72;4974893;28;20325;-77
2021/05/31 01:54:07;;;;;;;7.72;4.07;;;;;;;12.96;53.21;92954.13;4975109;28;20520;-77
2021/05/31 01:56:35;;;;;;;9.98;4.00;;;;;;;12.97;52.98;92950.44;4975034;28;20052;-77
2021/05/31 01:59:01;;;;;;;7.25;4.10;;;;;;;12.99;52.69;92950.13;4974723;28;20111;-76
2021/05/31 02:01:27;;;;;;;7.70;4.30;;;;;;;12.98;52.80;92938.06;4974332;28;20387;-77
2021/05/31 02:03:52;;;;;;;6.63;3.80;;;;;;;12.97;53.86;92947.00;4972828;28;20054;-76
2021/05/31 02:06:18;;;;;;;9.68;4.10;;;;;;;12.94;54.23;92948.38;4972742;28;20122;-76
2021/05/31 02:08:44;;;;;;;7.07;4.00;;;;;;;12.91;54.96;92951.56;4968424;28;20055;-76
2021/05/31 02:11:24;;;;;;;8.85;4.90;;;;;;;12.93;53.98;92946.81;4921771;29;20164;-76
2021/05/31 02:13:55;;;;;;;8.73;4.60;;;;;;;12.94;54.11;92952.84;4937434;29;20078;-76
2021/05/31 02:16:33;;;;;;;9.10;3.92;;;;;;;12.92;54.15;92950.50;4954546;29;20059;-76
2021/05/31 02:19:02;;;;;;;7.20;4.20;;;;;;;12.92;54.02;92955.75;4954550;29;20520;-76
2021/05/31 02:21:30;;;;;;;6.55;4.20;;;;;;;12.92;53.53;92950.50;4955132;29;20038;-77
2021/05/31 02:23:57;;;;;;;8.02;4.38;;;;;;;12.92;53.54;92953.13;4954345;29;20043;-76
2021/05/31 02:26:23;;;;;;;9.10;4.15;;;;;;;12.95;53.70;92947.31;4954607;29;20126;-77
2021/05/31 02:28:49;;;;;;;6.85;3.88;;;;;;;12.93;53.97;92952.06;4955084;29;20051;-77
2021/05/31 02:31:15;;;;;;;6.90;3.95;;;;;;;12.93;53.49;92949.44;4954029;28;20046;-77
2021/05/31 02:33:43;;;;;;;6.40;3.72;;;;;;;12.92;53.36;92950.50;4969676;28;20145;-76
2021/05/31 02:36:09;;;;;;;8.63;4.03;;;;;;;12.91;53.42;92949.72;4954380;29;20379;-76
2021/05/31 02:38:34;;;;;;;9.07;4.60;;;;;;;12.96;52.04;92955.97;4954180;29;20047;-76
2021/05/31 02:41:00;;;;;;;6.25;4.07;;;;;;;12.94;52.46;92948.38;4954137;29;20039;-76
2021/05/31 02:43:26;;;;;;;8.13;4.10;;;;;;;12.91;53.02;92954.22;4968974;28;20405;-76
2021/05/31 02:45:52;;;;;;;9.32;3.85;;;;;;;12.90;52.95;92950.81;4954030;29;20490;-76
2021/05/31 02:48:17;;;;;;;8.27;3.70;;;;;;;12.88;52.96;92950.31;4953888;29;20102;-76
2021/05/31 02:50:43;;;;;;;7.88;3.40;;;;;;;12.88;52.87;92954.78;4953952;29;20031;-76
2021/05/31 02:53:09;;;;;;;7.05;3.75;;;;;;;12.91;52.66;92948.94;4937247;29;20525;-76
2021/05/31 02:55:36;;;;;;;5.63;3.35;;;;;;;12.88;52.49;92939.03;4954305;29;20031;-76
2021/05/31 02:58:02;;;;;;;11.45;3.92;;;;;;;12.90;52.74;92942.13;4920968;29;20059;-77
2021/05/31 03:00:29;;;;;;;8.32;3.60;;;;;;;12.85;52.75;92948.25;4968853;28;20035;-77
2021/05/31 03:02:55;;;;;;;7.45;4.13;;;;;;;12.84;53.25;92956.44;4954066;29;20081;-76
2021/05/31 03:05:26;;;;;;;7.90;4.20;;;;;;;12.79;52.51;92954.66;4936598;29;20051;-76
2021/05/31 03:07:52;;;;;;;7.82;3.58;;;;;;;12.77;52.22;92953.41;4936368;29;20045;-76
2021/05/31 03:10:18;;;;;;;7.32;3.95;;;;;;;12.76;51.82;92949.19;4951994;28;20536;-76
2021/05/31 03:12:44;;;;;;;6.32;3.47;;;;;;;12.70;52.02;92951.91;4968547;28;20051;-77
2021/05/31 03:15:13;;;;;;;7.13;3.47;;;;;;;12.71;51.29;92953.47;4953738;29;20047;-76
2021/05/31 03:17:39;;;;;;;7.18;3.33;;;;;;;12.73;50.42;92947.16;4953441;29;20039;-76
2021/05/31 03:20:06;;;;;;;6.45;3.38;;;;;;;12.73;50.95;92947.16;4953548;29;20478;-76
2021/05/31 03:22:32;;;;;;;5.93;3.30;;;;;;;12.67;50.10;92949.84;4953516;29;20043;-76
2021/05/31 03:24:57;;;;;;;5.97;2.97;;;;;;;12.70;50.27;92951.91;4953731;29;20051;-76
2021/05/31 03:27:23;;;;;;;5.47;3.05;;;;;;;12.68;49.90;92956.66;4953395;29;20047;-76
2021/05/31 03:29:49;;;;;;;5.53;3.00;;;;;;;12.64;49.09;92953.06;4953225;29;20042;-76
2021/05/31 03:32:14;;;;;;;5.07;2.60;;;;;;;12.63;49.03;92955.97;4953214;29;20540;-76
2021/05/31 03:34:40;;;;;;;7.55;2.50;;;;;;;12.62;48.29;92962.28;4968109;28;20047;-76
2021/05/31 03:37:06;;;;;;;4.57;2.65;;;;;;;12.62;49.20;92967.53;4937876;29;20043;-75
2021/05/31 03:39:31;;;;;;;6.78;2.80;;;;;;;12.60;48.26;92961.78;4953514;28;20474;-75
2021/05/31 03:41:57;;;;;;;4.82;2.60;;;;;;;12.56;48.95;92963.44;4954472;28;20471;-75
2021/05/31 03:44:22;;;;;;;9.73;2.95;;;;;;;12.56;48.40;92969.44;4953775;29;20046;-75
2021/05/31 03:46:48;;;;;;;6.72;2.58;;;;;;;12.56;48.57;92972.06;4936573;29;20135;-75
2021/05/31 03:49:14;;;;;;;4.88;2.80;;;;;;;12.52;48.24;92981.63;4960282;28;20043;-76
2021/05/31 03:51:39;;;;;;;4.65;2.63;;;;;;;12.49;48.19;92976.91;4957211;28;20051;-75
2021/05/31 03:54:05;;;;;;;4.50;2.53;;;;;;;12.50;48.33;92983.75;4952990;29;20039;-75
2021/05/31 03:56:31;;;;;;;5.15;2.60;;;;;;;12.45;48.65;92968.03;4935489;29;20074;-77
2021/05/31 03:58:57;;;;;;;4.28;2.50;;;;;;;12.47;48.35;92987.72;4954402;29;20119;-77
2021/05/31 04:01:22;;;;;;;5.28;2.30;;;;;;;12.48;48.45;92994.53;4969969;28;20454;-77
2021/05/31 04:03:48;;;;;;;6.00;2.53;;;;;;;12.45;49.39;92986.44;4954795;29;20066;-77
2021/05/31 04:11:36;;;;;;;4.88;2.70;;;;;;;12.42;50.42;92990.41;4972195;28;20138;-77
2021/05/31 04:14:10;;;;;;;4.55;2.53;;;;;;;12.41;50.26;92995.97;4972521;28;20065;-77
2021/05/31 04:16:41;;;;;;;5.57;2.80;;;;;;;12.42;50.43;92997.50;4972386;28;20133;-77
2021/05/31 04:19:08;;;;;;;4.53;2.72;;;;;;;12.39;50.29;92995.47;4972972;28;20498;-77
2021/05/31 04:21:36;;;;;;;5.45;2.65;;;;;;;12.38;50.31;92992.03;4973678;28;20043;-77
2021/05/31 04:24:03;;;;;;;4.57;2.70;;;;;;;12.39;50.56;92998.84;4987928;28;20047;-78
2021/05/31 04:26:29;;;;;;;5.82;2.70;;;;;;;12.41;50.36;92998.59;4972604;28;20129;-77
2021/05/31 04:28:55;;;;;;;4.68;2.80;;;;;;;12.38;49.73;92994.66;4972061;28;20043;-77
2021/05/31 04:31:22;;;;;;;7.00;2.75;;;;;;;12.41;49.99;93003.84;4963391;28;20387;-77
2021/05/31 04:33:47;;;;;;;4.68;2.60;;;;;;;12.43;49.75;92996.47;4969575;28;20386;-77
2021/05/31 04:36:13;;;;;;;8.40;2.50;;;;;;;12.46;50.03;93003.75;4972697;28;20045;-76
2021/05/31 04:38:39;;;;;;;10.48;2.70;;;;;;;12.49;50.01;93000.56;4972084;28;20057;-77
2021/05/31 04:41:05;;;;;;;4.57;2.50;;;;;;;12.50;49.83;93002.13;4972202;28;20455;-76
2021/05/31 04:43:31;;;;;;;5.22;2.60;;;;;;;12.51;50.05;92998.41;4972112;28;20501;-76
2021/05/31 04:45:57;;;;;;;5.18;2.40;;;;;;;12.57;50.54;93005.16;4971946;28;20059;-77
2021/05/31 04:48:23;;;;;;;4.68;2.60;;;;;;;12.61;50.54;93008.00;4971572;28;20093;-76
2021/05/31 04:50:56;;;;;;;3.92;2.35;;;;;;;12.63;49.84;93005.84;4971834;28;20046;-77
2021/05/31 04:53:26;;;;;;;5.07;2.42;;;;;;;12.65;49.77;93011.59;4971884;28;20043;-76
2021/05/31 04:55:55;;;;;;;6.60;2.40;;;;;;;12.64;49.25;93013.47;4975275;28;20085;-77
2021/05/31 04:58:22;;;;;;;4.38;2.15;;;;;;;12.66;49.54;93008.72;4976009;28;20035;-76
2021/05/31 05:00:49;;;;;;;4.90;2.22;;;;;;;12.65;48.98;93016.88;4972293;28;20043;-77
2021/05/31 05:03:15;;;;;;;4.45;2.40;;;;;;;12.61;48.77;93019.28;4971519;28;20066;-77
2021/05/31 05:05:40;;;;;;;4.82;2.30;;;;;;;12.63;48.80;93022.41;4958020;28;20505;-78
2021/05/31 05:08:06;;;;;;;5.13;2.13;;;;;;;12.65;48.07;93020.28;4975418;28;20520;-76
2021/05/31 05:10:33;;;;;;;4.88;2.13;;;;;;;12.68;48.88;93024.97;4938186;28;20052;-76
2021/05/31 05:12:59;;;;;;;6.10;2.50;;;;;;;12.72;49.33;93014.66;4919532;29;20039;-76
2021/05/31 05:15:25;;;;;;;4.45;2.33;;;;;;;12.75;50.15;93026.47;4936296;29;20407;-77
2021/05/31 05:17:51;;;;;;;5.45;2.35;;;;;;;12.76;49.72;93017.50;4936349;29;20036;-76
2021/05/31 05:20:19;;;;;;;4.97;2.53;;;;;;;12.75;50.28;93023.84;4936324;29;20130;-76
2021/05/31 05:22:45;;;;;;;3.88;2.20;;;;;;;12.77;49.66;93024.31;4936188;29;20067;-77
2021/05/31 05:25:12;;;;;;;4.45;2.33;;;;;;;12.80;49.90;93021.13;4936538;29;20481;-76
2021/05/31 05:27:38;;;;;;;5.28;2.30;;;;;;;12.87;49.46;93017.03;4918985;29;20047;-76
2021/05/31 05:30:06;;;;;;;6.47;2.30;;;;;;;12.95;48.78;93020.88;4935433;29;20050;-76
2021/05/31 05:32:33;;;;;;;4.38;2.30;;;;;;;13.03;48.71;93020.22;4935813;29;20464;-76
2021/05/31 05:35:07;;;;;;;4.50;2.10;;;;;;;13.12;48.38;93023.75;4918309;29;20063;-75
2021/05/31 05:37:41;;;;;;;6.28;2.20;;;;;;;13.20;47.93;93017.06;4927456;29;20051;-76
2021/05/31 05:43:10;;;;;;;5.32;2.20;;;;;;;13.25;48.44;93016.97;4904708;29;20053;-77
2021/05/31 05:45:55;;;;;;;4.82;2.00;;;;;;;13.24;48.51;93010.16;4931569;29;20130;-77
2021/05/31 05:48:21;;;;;;;4.88;2.15;;;;;;;13.29;48.65;93011.94;4953518;29;20087;-77
2021/05/31 05:50:47;;;;;;;3.72;2.13;;;;;;;13.33;48.30;93012.94;4954504;29;20039;-77
2021/05/31 05:53:13;;;;;;;5.32;2.22;;;;;;;13.41;48.22;93012.25;4953921;29;20047;-77
2021/05/31 05:55:38;;;;;;;7.90;2.10;;;;;;;13.46;48.31;93014.78;4950951;29;20042;-77
2021/05/31 05:58:05;;;;;;;4.50;2.78;;;;;;;13.52;48.20;93020.75;4916192;29;20067;-77
2021/05/31 06:00:32;;;;;;;5.25;2.22;;;;;;;13.47;46.96;93013.72;4936329;29;20550;-77
2021/05/31 06:02:58;;;;;;;10.13;2.90;;;;;;;13.53;47.59;93006.50;4919488;29;20422;-77
2021/05/31 06:05:24;;;;;;;6.68;2.72;;;;;;;13.71;47.19;93003.03;4931869;29;20039;-77
2021/05/31 06:07:50;;;;;;;4.90;2.63;;;;;;;14.08;46.16;93013.63;4934619;29;20048;-77
2021/05/31 06:10:18;;;;;;;7.30;2.70;;;;;;;14.78;45.08;93013.19;4912586;29;20056;-77
2021/05/31 06:12:44;;;;;;;4.00;2.00;;;;;;;15.36;42.63;93010.78;4930502;29;20056;-77
2021/05/31 06:15:11;;;;;;;8.75;2.50;;;;;;;18.59;36.24;93001.53;4930190;29;20138;-77
2021/05/31 06:17:38;;;;;;;4.60;2.08;;;;;;;18.63;35.71;93004.31;4898613;29;20495;-77
2021/05/31 06:20:06;;;;;;;5.22;2.55;;;;;;;17.89;37.24;93015.16;4928219;29;20051;-77
2021/05/31 06:22:33;;;;;;;5.05;1.98;;;;;;;18.61;36.40;93012.59;4913298;29;20048;-76
2021/05/31 06:24:59;;;;;;;4.20;2.20;;;;;;;18.30;36.44;93013.72;4915257;29;20491;-77
2021/05/31 06:27:25;;;;;;;5.60;2.40;;;;;;;20.87;32.97;93009.31;4914755;29;20130;-77
2021/05/31 06:29:51;;;;;;;6.65;2.08;;;;;;;19.81;33.30;93012.94;4915260;29;20040;-77
2021/05/31 06:32:17;;;;;;;5.82;2.03;;;;;;;21.75;30.57;93009.41;4898028;29;20052;-77
2021/05/31 06:34:42;;;;;;;4.13;1.90;;;;;;;23.25;28.85;93009.28;4915333;29;20036;-77
2021/05/31 06:37:08;;;;;;;4.03;2.20;;;;;;;23.96;28.38;93010.94;4915044;29;20431;-77
2021/05/31 06:39:34;;;;;;;6.70;2.33;;;;;;;20.88;31.13;93010.13;4913882;29;20040;-77
2021/05/31 06:41:59;;;;;;;5.82;2.25;;;;;;;21.72;31.29;93009.31;4898154;29;20055;-77
2021/05/31 06:44:25;;;;;;;3.67;2.20;;;;;;;19.70;32.98;93009.94;4914724;29;20044;-77
2021/05/31 06:46:51;;;;;;;3.70;2.10;;;;;;;18.18;36.08;93007.56;4915251;29;20134;-77
2021/05/31 06:49:16;;;;;;;3.83;2.30;;;;;;;16.63;39.59;93024.22;4913556;29;20116;-77
2021/05/31 06:51:42;;;;;;;6.95;2.50;;;;;;;16.29;40.66;93019.66;4898012;29;20056;-77
2021/05/31 06:54:08;;;;;;;4.55;2.42;;;;;;;15.16;42.90;93012.81;4914875;29;20047;-77
2021/05/31 06:56:33;;;;;;;4.55;2.30;;;;;;;15.13;42.58;93018.72;4913162;29;20080;-77
2021/05/31 06:58:59;;;;;;;5.78;2.22;;;;;;;15.25;43.14;93009.47;4896021;29;20083;-77
2021/05/31 07:01:25;;;;;;;4.75;2.40;;;;;;;15.38;43.00;93019.16;4896447;29;20423;-77
2021/05/31 07:03:50;;;;;;;8.00;2.72;;;;;;;15.19;43.20;93017.50;4896322;29;20464;-78
2021/05/31 07:06:16;;;;;;;5.70;2.38;;;;;;;15.52;42.86;93022.50;4895967;29;20056;-77
2021/05/31 07:08:42;;;;;;;4.75;2.30;;;;;;;15.32;42.35;93012.47;4902605;28;20055;-77
2021/05/31 07:11:13;;;;;;;4.55;2.40;;;;;;;15.55;42.60;93016.59;4935714;29;20545;-77
2021/05/31 07:13:39;;;;;;;4.32;2.30;;;;;;;15.06;45.49;93020.19;4952911;29;20098;-77
2021/05/31 07:16:06;;;;;;;5.75;2.25;;;;;;;15.18;45.72;93015.16;4953091;28;20043;-77
2021/05/31 07:18:32;;;;;;;4.20;2.28;;;;;;;15.28;44.44;93014.13;4935653;29;20505;-77
2021/05/31 07:20:58;;;;;;;5.30;2.70;;;;;;;14.81;44.91;93019.72;4960084;28;20046;-77
2021/05/31 07:23:24;;;;;;;5.88;2.53;;;;;;;14.99;46.00;93007.44;4971725;28;20055;-77
2021/05/31 07:25:49;;;;;;;5.22;2.45;;;;;;;14.92;46.29;93020.25;4972593;28;20366;-77
2021/05/31 07:28:15;;;;;;;4.50;2.45;;;;;;;15.33;46.36;93014.81;4971583;28;20071;-77
2021/05/31 07:30:41;;;;;;;4.95;2.65;;;;;;;15.18;46.02;93021.22;4972033;28;20034;-77
2021/05/31 07:33:12;;;;;;;4.07;2.47;;;;;;;15.68;45.38;93022.09;4971546;28;20421;-77
2021/05/31 07:35:38;;;;;;;4.07;2.40;;;;;;;16.31;43.00;93017.50;4971502;28;20053;-77
2021/05/31 07:38:04;;;;;;;4.57;2.55;;;;;;;15.40;44.16;93025.69;4972057;28;20031;-77
2021/05/31 07:40:30;;;;;;;5.20;2.67;;;;;;;15.89;43.80;93015.19;4971840;28;20413;-77
2021/05/31 07:42:56;;;;;;;7.18;2.70;;;;;;;16.16;41.64;93018.69;4971658;28;20046;-77
2021/05/31 07:45:21;;;;;;;6.53;3.00;;;;;;;16.49;39.90;93018.31;4971779;28;20039;-77
2021/05/31 07:47:47;;;;;;;4.60;2.53;;;;;;;16.40;41.78;93015.66;4971475;28;20339;-77
2021/05/31 07:50:14;;;;;;;6.43;2.60;;;;;;;16.91;41.61;93014.16;4949257;29;20418;-77
2021/05/31 07:52:40;;;;;;;4.70;2.30;;;;;;;16.95;42.46;93016.94;4935479;29;20052;-77
2021/05/31 07:55:11;;;;;;;5.85;2.38;;;;;;;16.32;44.50;93019.03;4945650;29;20103;-77
2021/05/31 07:57:38;;;;;;;4.88;2.90;;;;;;;16.98;42.41;93017.09;4958112;28;20047;-77
2021/05/31 08:00:08;;;;;;;5.57;2.47;;;;;;;16.77;42.90;93011.63;4971500;28;20105;-77
2021/05/31 08:02:42;;;;;;;4.90;2.67;;;;;;;16.16;41.40;93008.13;4957787;28;20055;-77
2021/05/31 08:05:08;;;;;;;5.07;2.67;;;;;;;17.01;42.04;93005.13;4954843;28;20090;-77
2021/05/31 08:07:33;;;;;;;6.97;3.53;;;;;;;16.98;40.41;93014.47;4971388;28;20094;-77
2021/05/31 08:10:00;;;;;;;7.07;2.70;;;;;;;17.01;42.46;93011.19;4968999;28;20058;-77
2021/05/31 08:12:25;;;;;;;8.02;2.90;;;;;;;17.09;40.39;93006.97;4971559;28;20513;-77
2021/05/31 08:14:51;;;;;;;5.25;3.05;;;;;;;16.83;40.40;93012.28;4970938;28;20125;-77
2021/05/31 08:17:16;;;;;;;5.10;2.45;;;;;;;17.06;39.95;93005.72;4954037;28;20498;-77
2021/05/31 08:19:42;;;;;;;5.15;2.70;;;;;;;16.67;41.55;93004.00;4971665;28;20043;-77
2021/05/31 08:22:08;;;;;;;5.78;3.08;;;;;;;16.28;42.85;92997.78;4954055;28;20491;-77
2021/05/31 08:24:35;;;;;;;5.43;3.10;;;;;;;16.97;40.99;93004.19;4970622;28;20372;-77
2021/05/31 08:27:01;;;;;;;5.47;2.47;;;;;;;17.32;41.62;92996.19;4971395;28;20102;-77
2021/05/31 08:29:26;;;;;;;5.05;2.58;;;;;;;17.16;40.35;92993.28;4972465;28;20038;-77
2021/05/31 08:31:53;;;;;;;10.80;2.33;;;;;;;16.42;44.49;92987.81;4990502;28;20324;-77
2021/05/31 08:34:19;;;;;;;7.63;3.00;;;;;;;17.19;42.38;92985.47;4975065;28;20126;-77
2021/05/31 08:36:45;;;;;;;4.18;2.53;;;;;;;17.60;43.32;92991.28;4989589;28;20038;-77
2021/05/31 08:39:12;;;;;;;4.80;2.78;;;;;;;17.96;40.53;92984.78;4975537;28;20057;-78
2021/05/31 08:41:38;;;;;;;4.25;2.40;;;;;;;17.90;39.90;92981.53;4975221;28;20094;-78
2021/05/31 08:44:05;;;;;;;4.82;2.40;;;;;;;17.22;41.38;92992.78;4974992;28;20364;-77
2021/05/31 08:46:30;;;;;;;6.38;2.40;;;;;;;16.49;42.61;92991.88;4957778;28;20074;-77
2021/05/31 08:48:58;;;;;;;10.85;2.70;;;;;;;16.81;44.04;92982.72;4975134;28;20066;-77
2021/05/31 08:51:24;;;;;;;4.40;2.35;;;;;;;15.94;44.95;92982.59;4974376;28;20133;-77
2021/05/31 08:53:50;;;;;;;5.35;2.63;;;;;;;15.70;45.97;92977.72;4975360;28;20515;-77
2021/05/31 08:56:19;;;;;;;6.07;2.70;;;;;;;16.51;44.97;92989.72;4975874;28;20038;-77
2021/05/31 08:58:48;;;;;;;6.20;2.72;;;;;;;17.13;43.45;92983.31;4990647;28;20469;-77
2021/05/31 09:01:14;;;;;;;7.75;2.90;;;;;;;17.06;44.58;92994.38;4985674;28;20557;-77
2021/05/31 09:03:42;;;;;;;5.43;2.78;;;;;;;16.97;44.57;92983.03;4990985;28;20042;-77
2021/05/31 09:06:10;;;;;;;4.63;2.80;;;;;;;17.03;44.28;92989.72;4957585;28;20054;-77
2021/05/31 09:08:36;;;;;;;5.28;2.55;;;;;;;16.93;43.04;92990.81;4961608;28;20504;-77
2021/05/31 09:11:06;;;;;;;7.70;3.10;;;;;;;17.37;45.43;92978.28;4974499;28;20043;-77
2021/05/31 09:13:39;;;;;;;5.55;3.15;;;;;;;17.76;42.46;92986.22;4974506;28;20122;-77
2021/05/31 09:16:06;;;;;;;5.43;3.40;;;;;;;17.45;42.97;92985.41;4974967;28;20043;-77
2021/05/31 09:18:34;;;;;;;5.13;2.78;;;;;;;16.93;43.56;92979.44;4974322;28;20109;-77
2021/05/31 09:21:19;;;;;;;6.15;2.70;;;;;;;16.19;44.58;92978.50;4972596;28;20790;-78
2021/05/31 09:23:46;;;;;;;4.93;2.40;;;;;;;15.45;46.89;92977.31;4973553;28;20034;-77
2021/05/31 09:26:12;;;;;;;7.68;3.08;;;;;;;16.19;47.00;92968.69;4974233;28;20476;-77
2021/05/31 09:28:38;;;;;;;6.43;2.50;;;;;;;16.26;46.13;92972.72;4970370;28;20038;-77
2021/05/31 09:31:17;;;;;;;4.78;2.70;;;;;;;15.95;46.43;92969.09;4969226;28;20042;-77
2021/05/31 09:33:43;;;;;;;6.72;2.80;;;;;;;15.70;45.98;92967.16;4973288;28;20043;-77
2021/05/31 09:36:10;;;;;;;7.88;3.30;;;;;;;16.36;46.79;92973.22;4977062;28;20418;-78
2021/05/31 09:38:49;;;;;;;6.10;2.80;;;;;;;16.08;45.61;92964.03;4982416;28;20109;-77
2021/05/31 09:41:21;;;;;;;3.80;2.40;;;;;;;15.93;44.47;92971.28;4956642;28;20194;-77
2021/05/31 09:43:55;;;;;;;7.82;2.47;;;;;;;16.12;46.73;92973.66;4951400;28;20075;-77
2021/05/31 09:46:32;;;;;;;5.15;3.20;;;;;;;16.94;45.26;92968.56;4936742;28;20043;-78
2021/05/31 09:48:57;;;;;;;5.50;3.45;;;;;;;17.61;45.10;92967.16;4955511;29;20040;-78
2021/05/31 09:51:23;;;;;;;9.70;3.45;;;;;;;17.70;40.77;92953.88;4955646;29;20094;-78
2021/05/31 09:53:54;;;;;;;6.57;3.38;;;;;;;16.52;42.50;92964.81;4997658;28;20043;-78
2021/05/31 09:56:19;;;;;;;6.90;3.70;;;;;;;16.40;43.21;92955.66;4973191;28;20047;-76
2021/05/31 09:59:02;;;;;;;5.88;3.60;;;;;;;16.99;46.04;92962.34;4973578;28;20505;-76
2021/05/31 10:01:34;;;;;;;;;;;;;;;17.51;44.47;92959.53;4973419;28;20058;-76
2021/05/31 10:04:28;;;;;;;5.15;3.03;;;;;;;16.58;44.49;92948.50;4975522;28;19921;-79
2021/05/31 10:07:39;;;;;;;6.13;3.17;;;;;;;16.87;44.82;92951.63;4974079;28;20482;-78
2021/05/31 10:09:42;;;;;;;10.30;3.30;;;;;;;16.22;46.05;92954.09;4949489;28;20183;-77
2021/05/31 10:12:10;;;;;;;7.22;3.30;;;;;;;16.30;44.85;92955.97;4974226;28;20050;-77
2021/05/31 10:14:35;;;;;;;5.13;2.90;;;;;;;16.51;45.87;92950.06;4972468;28;20549;-77
2021/05/31 10:17:02;;;;;;;6.90;3.20;;;;;;;16.90;46.36;92948.34;4977337;28;20182;-77
2021/05/31 10:19:29;;;;;;;6.57;3.20;;;;;;;17.04;46.44;92948.94;4939721;28;20513;-78
2021/05/31 10:21:55;;;;;;;5.70;3.38;;;;;;;16.62;46.44;92954.72;4959165;28;20485;-78
2021/05/31 10:24:20;;;;;;;5.90;3.70;;;;;;;16.77;46.62;92955.31;4985881;28;20093;-77
2021/05/31 10:26:47;;;;;;;5.43;3.00;;;;;;;16.39;46.99;92946.19;4986201;28;20150;-77
2021/05/31 10:29:12;;;;;;;5.60;3.42;;;;;;;16.08;46.26;92950.81;4994769;28;20035;-77
2021/05/31 10:31:45;;;;;;;6.93;3.40;;;;;;;16.65;47.24;92953.31;4942774;28;20056;-76
2021/05/31 10:34:22;;;;;;;5.43;3.33;;;;;;;16.48;46.72;92942.75;4956349;28;20042;-76
2021/05/31 10:36:52;;;;;;;9.57;3.80;;;;;;;16.82;46.72;92947.28;4956690;28;20106;-76
2021/05/31 10:39:24;;;;;;;7.25;4.47;;;;;;;17.42;47.29;92950.88;4972935;28;20035;-76
2021/05/31 10:41:50;;;;;;;7.30;3.25;;;;;;;17.53;45.26;92943.34;4972705;28;20050;-76
2021/05/31 10:44:19;;;;;;;12.27;4.03;;;;;;;17.56;44.96;92940.88;4955857;28;20442;-76
2021/05/31 10:46:45;;;;;;;5.07;3.33;;;;;;;16.89;44.43;92949.44;4972695;28;20043;-76
2021/05/31 10:49:20;;;;;;;7.10;3.90;;;;;;;16.62;45.10;92933.59;4957781;28;20039;-77
2021/05/31 10:51:46;;;;;;;5.30;3.53;;;;;;;16.54;47.63;92941.50;4991231;28;20057;-76
2021/05/31 10:54:17;;;;;;;8.82;3.92;;;;;;;16.99;47.54;92933.25;4950002;28;20485;-76
2021/05/31 10:56:45;;;;;;;12.10;4.18;;;;;;;16.39;46.52;92938.25;4964862;28;20043;-76
2021/05/31 10:59:16;;;;;;;7.32;3.97;;;;;;;16.55;46.91;92937.78;4975212;28;20459;-76
2021/05/31 11:01:42;;;;;;;9.23;3.85;;;;;;;17.02;46.57;92928.13;4991284;28;20062;-76
2021/05/31 11:04:22;;;;;;;5.95;4.03;;;;;;;17.25;47.04;92917.31;4961493;28;20636;-77
2021/05/31 11:06:50;;;;;;;7.32;4.45;;;;;;;17.17;45.80;92926.81;4982857;28;20574;-76
2021/05/31 11:09:28;;;;;;;9.63;4.63;;;;;;;17.32;46.69;92936.13;4954085;28;20079;-76
2021/05/31 11:11:57;;;;;;;7.60;4.50;;;;;;;18.14;45.57;92925.28;4938915;29;20047;-76
2021/05/31 11:14:35;;;;;;;7.65;4.25;;;;;;;17.11;46.17;92928.06;4933456;29;20410;-76
2021/05/31 11:17:07;;;;;;;9.93;4.05;;;;;;;17.03;46.36;92932.31;4924344;29;20494;-76
2021/05/31 11:19:38;;;;;;;5.97;4.00;;;;;;;17.35;45.93;92932.06;4936933;29;20431;-76
2021/05/31 11:22:24;;;;;;;8.65;4.55;;;;;;;17.44;46.51;92909.75;4940238;29;20043;-76
2021/05/31 11:25:03;;;;;;;7.00;3.60;;;;;;;17.68;46.70;92914.47;4932742;29;20052;-76
2021/05/31 11:27:34;;;;;;;7.15;4.50;;;;;;;17.90;44.29;92912.69;4932622;29;20040;-76
2021/05/31 11:30:02;;;;;;;6.43;4.10;;;;;;;17.45;47.09;92911.31;4932090;29;20051;-76
2021/05/31 11:32:28;;;;;;;10.00;4.10;;;;;;;16.88;48.96;92908.22;4932463;29;20134;-75
2021/05/31 11:34:57;;;;;;;8.52;4.57;;;;;;;17.74;48.55;92901.81;4916062;29;20168;-76
2021/05/31 11:37:24;;;;;;;8.00;4.25;;;;;;;17.86;44.77;92901.19;4932680;29;20039;-76
2021/05/31 11:39:50;;;;;;;9.80;4.75;;;;;;;18.11;45.07;92883.56;4932644;29;20472;-76
2021/05/31 11:42:16;;;;;;;8.27;3.90;;;;;;;17.98;46.79;92884.59;4912382;29;20123;-76
2021/05/31 11:44:49;;;;;;;8.45;4.30;;;;;;;18.10;46.17;92880.16;4932185;29;20050;-76
2021/05/31 11:47:21;;;;;;;8.65;4.10;;;;;;;17.85;46.74;92891.66;4932453;29;20067;-76